Airfield :
LOGIN :

Register | Disclaimer

   EN    FR    IT 

 










Legend :    VFR   Marginal VFR   IFR   Intensive IFR   Very Intensive IFR
Visi :
Ceiling :
>= 8 km
>= 3000ft
5 to 8 km
1000 to 3000 ft
1500m to 5 km
500 to 1000 ft
800 to 1500m
200 to 500 ft
< 800m
< 200 ft
Symbols :   Thunderstorms  Fog  Heavy snow  Heavy precipitations  Wind > 20 kt
SIGMETs :     Misc.  Thunderstorms  Icing  Turbulence  Mountain Waves  Volcanic Ashes






- Airport Elevation : 640 ft
- IATA code : AOC


EDAC - Altenburg-Nobitz

CURRENT METAR :
  • 182050Z AUTO 20005KT 9999 // FEW040/// BKN051/// OVC084/// 10/08 Q1013

EXPIRED METARs :
  • 182020Z AUTO 21006KT 9999 // SCT041/// OVC072/// 09/08 Q1013
  • 181950Z AUTO 21006KT 9999 // FEW060/// OVC093/// 10/07 Q1012
  • 181920Z AUTO 22010KT 9999 // FEW036/// BKN110/// 10/06 Q1012
  • 181850Z AUTO 18006KT 9999 // SCT085/// 11/08 Q1012
  • 181820Z AUTO 19005KT 9999 // SCT075/// BKN190/// 12/08 Q1012

TAF TAF EDAC
Valid from the 18 at 18:00 until the 19 at 03:00 UTC


181700Z 1818/1903 24005KT 9999 OVC035
PROB30
TEMPO 1818/1820 TSRA SCT015CB BKN020



MET'MAP, your aeronautical weather chart ! - Copyright ORBIFLY December 2007 - Disclaimer

ORBIFLY MET'MAP TEAM :

Programming & Development : Alexandra Zaïnal
Concept & original design : Baudouin d'Aumeries
Assistance for programming : Marc-Olivier Méhu
Technical & hardware support : Manuel Goepfert

Contact : metmap@orbifly.com




SOURCES & CREDITS :

   NOAA